Tucson, AZ (85745)

2:31 PM MST on December 06, 2016 (GMT -0700)
Wildcat Pass | | Change Station

Elev 2650 ft 32.20 °N, 111.04 °W | Updated 17 seconds ago

Clear
Clear
67.3 °F
Feels Like 67.3 °F
N
4.0
Wind Variable Wind from WNW
Gusts 0.0 mph

Today
High -- | Low -- °F
--% Chance of Precip.
Yesterday
High -- | Low -- °F
Precip. -- in
Pressure 29.83 in
Visibility 10.0 miles
Clouds Clear
Dew Point 31 °F
Humidity 26%
Rainfall 0.00 in
Snow Depth Not available.
7:11 AM 5:19 PM
Waxing Crescent, 45% visible
METAR KTUS 062053Z 29007G19KT 10SM CLR 20/M02 A2990 RMK AO2 SLP102 T02001017 56029
Pressure 29.83 in
Visibility 10.0 miles
Clouds Clear
Dew Point 31 °F
Humidity 26%
Rainfall 0.00 in
Snow Depth Not available.
7:11 AM 5:19 PM
Waxing Crescent, 45% visible
METAR KTUS 062053Z 29007G19KT 10SM CLR 20/M02 A2990 RMK AO2 SLP102 T02001017 56029

10-Day Weather Forecast

Almanac

Astronomy

Dec. 06, 2016 Rise Set
Actual Time
Civil Twilight
Nautical Twilight
Astronomical Twilight
Moon
Length of Visible Light
Length of Day
Tomorrow will be .
, % of the Moon is Illuminated

Today's Extremes

State Highs State Lows

Community

WunderPhotos

Upload Photos

1,956,034 photos uploaded!

WunderBlog® & News

Nearby

Air Quality

  Air Quality AQ Index Pollutant
Not available.

Snow Depth

Station Depth Elevation

Earthquake Activity

City Distance Mag. Time & Date
Minimum magnitude displayed is 2.5.

Coastal Water Temperatures

Place Temperature

Stations

Nearby Weather Stations

Station Location Temp. Windchill Dew Point Humidity Wind Precip. Elev Updated Type
                   

Watches & Warnings

There are currently no watches in effect.